Time;durP1;ratioP1;P1;durP2;ratioP2;P2;SDS_P1;SDS_P2;PMS_P1;PMS_P2;Temp;Humidity;BMP_temperature;BMP_pressure;BME280_temperature;BME280_humidity;BME280_pressure;Samples;Min_cycle;Max_cycle;Signal;HPM_P1;HPM_P2
2022/04/13 00:00:46;;;;;;;21.07;20.20;;;14.10;41.40;;;;;;6170568;23;20602;-81
2022/04/13 00:03:12;;;;;;;20.53;19.70;;;14.10;41.60;;;;;;6174201;23;20772;-82
2022/04/13 00:05:37;;;;;;;19.73;18.93;;;14.10;41.80;;;;;;6172762;23;20411;-80
2022/04/13 00:08:06;;;;;;;20.50;19.70;;;14.10;41.90;;;;;;6173312;23;20212;-82
2022/04/13 00:10:36;;;;;;;20.80;19.90;;;14.10;42.00;;;;;;6172452;23;20196;-81
2022/04/13 00:13:02;;;;;;;21.80;20.70;;;14.10;42.00;;;;;;6171682;23;20449;-82
2022/04/13 00:15:28;;;;;;;21.20;20.30;;;14.10;42.00;;;;;;6174558;23;20435;-80
2022/04/13 00:17:53;;;;;;;21.57;20.57;;;14.00;42.20;;;;;;6173367;23;20422;-82
2022/04/13 00:20:21;;;;;;;21.13;20.20;;;13.90;42.30;;;;;;6172142;23;20588;-80
2022/04/13 00:22:47;;;;;;;21.20;20.10;;;13.90;42.90;;;;;;6170758;23;20204;-82
2022/04/13 00:25:13;;;;;;;21.20;20.20;;;14.00;42.60;;;;;;6199382;23;20429;-82
2022/04/13 00:27:38;;;;;;;21.50;20.40;;;14.00;42.50;;;;;;6169694;23;20248;-81
2022/04/13 00:30:04;;;;;;;21.63;20.63;;;14.00;42.40;;;;;;6173594;23;20214;-81
2022/04/13 00:32:32;;;;;;;20.80;20.00;;;13.90;42.40;;;;;;6169165;23;20196;-81
2022/04/13 00:35:02;;;;;;;21.20;20.10;;;13.90;42.50;;;;;;6173148;23;20431;-82
2022/04/13 00:37:28;;;;;;;20.53;19.63;;;13.90;43.10;;;;;;6169648;23;20422;-81
2022/04/13 00:39:54;;;;;;;22.30;21.20;;;13.80;43.20;;;;;;6199604;23;20428;-82
2022/04/13 00:42:20;;;;;;;20.00;19.20;;;13.80;43.70;;;;;;6170005;23;21035;-81
2022/04/13 00:44:46;;;;;;;21.60;20.40;;;13.80;43.60;;;;;;6172490;23;20203;-81
2022/04/13 00:47:12;;;;;;;22.60;21.60;;;13.80;43.80;;;;;;6174617;23;20199;-82
2022/04/13 00:49:38;;;;;;;20.87;19.87;;;13.70;44.10;;;;;;6195824;23;20577;-77
2022/04/13 00:52:05;;;;;;;21.17;20.27;;;13.70;44.30;;;;;;6171370;23;20415;-77
2022/04/13 00:54:33;;;;;;;19.97;19.07;;;13.70;44.30;;;;;;6169622;23;20528;-77
2022/04/13 00:57:01;;;;;;;20.50;19.37;;;13.70;44.80;;;;;;6172969;23;20430;-76
2022/04/13 00:59:29;;;;;;;20.83;19.93;;;13.60;44.80;;;;;;6169000;23;20454;-76
2022/04/13 01:01:58;;;;;;;21.07;19.97;;;13.60;44.80;;;;;;6170838;23;20454;-76
2022/04/13 01:04:26;;;;;;;22.75;21.35;;;13.60;44.80;;;;;;6166495;23;20386;-76
2022/04/13 01:06:53;;;;;;;22.37;21.03;;;13.60;45.00;;;;;;6169865;23;20204;-75
2022/04/13 01:09:19;;;;;;;22.17;21.17;;;13.60;44.80;;;;;;6167445;23;20431;-76
2022/04/13 01:11:45;;;;;;;21.67;20.47;;;13.60;45.50;;;;;;6170659;23;20422;-75
2022/04/13 01:14:11;;;;;;;22.37;20.80;;;13.60;44.90;;;;;;6167420;23;21458;-76
2022/04/13 01:16:39;;;;;;;21.80;20.47;;;13.50;44.90;;;;;;6170369;23;20683;-76
2022/04/13 01:19:06;;;;;;;21.80;20.80;;;13.50;45.00;;;;;;6167333;23;20795;-76
2022/04/13 01:21:42;;;;;;;21.60;20.50;;;13.50;45.30;;;;;;6170103;23;20732;-76
2022/04/13 01:24:07;;;;;;;22.10;21.10;;;13.40;46.20;;;;;;6190676;23;20789;-76
2022/04/13 01:26:33;;;;;;;21.93;21.03;;;13.30;46.90;;;;;;6169880;23;20448;-76
2022/04/13 01:28:59;;;;;;;23.63;21.73;;;13.30;46.80;;;;;;6166847;23;20298;-76
2022/04/13 01:31:24;;;;;;;23.23;22.13;;;13.30;46.40;;;;;;6170807;23;20199;-75
2022/04/13 01:33:50;;;;;;;21.03;20.00;;;13.30;46.70;;;;;;6195430;23;20200;-77
2022/04/13 01:36:16;;;;;;;22.30;21.13;;;13.30;47.10;;;;;;6192787;23;20191;-76
2022/04/13 01:38:41;;;;;;;23.17;22.07;;;13.20;47.20;;;;;;6168849;23;20195;-77
2022/04/13 01:41:07;;;;;;;21.23;20.23;;;13.20;46.90;;;;;;6167796;23;20331;-76
2022/04/13 01:43:33;;;;;;;21.60;20.63;;;13.30;46.80;;;;;;6170548;23;20600;-77
2022/04/13 01:45:58;;;;;;;21.53;20.53;;;13.20;46.80;;;;;;6194441;23;20199;-77
2022/04/13 01:48:24;;;;;;;20.63;19.63;;;13.20;47.00;;;;;;6169528;23;20200;-76
2022/04/13 01:50:50;;;;;;;21.77;20.77;;;13.10;47.10;;;;;;6169854;23;20200;-76
2022/04/13 01:53:17;;;;;;;22.60;21.60;;;13.10;47.10;;;;;;6173593;23;20488;-76
2022/04/13 01:55:42;;;;;;;23.17;22.17;;;13.10;47.00;;;;;;6170455;23;20458;-76
2022/04/13 01:58:08;;;;;;;22.17;21.17;;;13.10;47.30;;;;;;6173420;23;20446;-76
2022/04/13 02:00:33;;;;;;;23.60;21.80;;;12.90;47.00;;;;;;6169946;23;20191;-76
2022/04/13 02:02:59;;;;;;;21.60;20.50;;;12.90;47.20;;;;;;6168909;23;20231;-76
2022/04/13 02:05:25;;;;;;;21.87;20.97;;;12.90;48.30;;;;;;6170923;23;20188;-77
2022/04/13 02:07:51;;;;;;;21.60;20.70;;;12.90;48.30;;;;;;6169025;23;20235;-77
2022/04/13 02:10:18;;;;;;;23.50;22.20;;;13.00;48.20;;;;;;6174375;23;20506;-75
2022/04/13 02:12:44;;;;;;;23.67;22.37;;;13.00;47.70;;;;;;6168276;23;20414;-75
2022/04/13 02:15:10;;;;;;;22.80;21.40;;;13.00;48.00;;;;;;6175040;23;20461;-76
2022/04/13 02:17:38;;;;;;;22.60;21.30;;;13.00;47.80;;;;;;6168776;23;20799;-76
2022/04/13 02:20:07;;;;;;;22.97;21.67;;;13.00;47.80;;;;;;6172502;23;20426;-76
2022/04/13 02:22:34;;;;;;;22.83;21.60;;;12.90;47.80;;;;;;6178310;23;20726;-75
2022/04/13 02:25:03;;;;;;;22.83;21.60;;;12.90;48.20;;;;;;6175387;23;20481;-75
2022/04/13 02:27:29;;;;;;;22.30;21.30;;;12.90;48.20;;;;;;6169871;23;20719;-76
2022/04/13 02:29:55;;;;;;;24.00;22.90;;;12.80;48.20;;;;;;6173266;23;20393;-76
2022/04/13 02:32:20;;;;;;;24.17;23.17;;;12.80;48.60;;;;;;6176669;23;20215;-76
2022/04/13 02:34:48;;;;;;;25.97;24.00;;;12.80;48.70;;;;;;6176372;23;20204;-77
2022/04/13 02:37:15;;;;;;;24.13;23.00;;;12.80;48.50;;;;;;6174047;23;20203;-80
2022/04/13 02:39:40;;;;;;;23.50;22.20;;;12.70;47.80;;;;;;6173854;23;20418;-77
2022/04/13 02:42:06;;;;;;;22.50;21.50;;;12.70;47.00;;;;;;6173008;23;20808;-81
2022/04/13 02:44:32;;;;;;;23.67;22.47;;;12.80;47.70;;;;;;6196708;23;20206;-81
2022/04/13 02:46:58;;;;;;;23.80;22.60;;;12.70;48.90;;;;;;6174532;23;20200;-81
2022/04/13 02:49:25;;;;;;;23.40;22.10;;;12.60;48.80;;;;;;6171316;23;21345;-81
2022/04/13 02:51:51;;;;;;;22.77;21.80;;;12.60;48.60;;;;;;6177175;23;20426;-82
2022/04/13 02:54:17;;;;;;;24.37;23.37;;;12.70;48.10;;;;;;6201481;23;20427;-81
2022/04/13 02:56:42;;;;;;;23.90;22.70;;;12.70;48.20;;;;;;6177625;23;20206;-81
2022/04/13 02:59:09;;;;;;;23.43;21.80;;;12.60;48.10;;;;;;6173158;23;20199;-81
2022/04/13 03:01:34;;;;;;;23.80;22.80;;;12.50;48.80;;;;;;6172349;23;20507;-81
2022/04/13 03:04:00;;;;;;;24.27;22.97;;;12.50;48.80;;;;;;6171832;23;20476;-81
2022/04/13 03:06:26;;;;;;;23.93;22.70;;;12.60;47.90;;;;;;6171665;23;20199;-81
2022/04/13 03:08:52;;;;;;;25.10;24.00;;;12.60;47.70;;;;;;6174107;23;20821;-81
2022/04/13 03:11:17;;;;;;;23.50;22.50;;;12.60;47.60;;;;;;6171861;23;20199;-81
2022/04/13 03:13:43;;;;;;;24.40;23.27;;;12.50;47.00;;;;;;6173455;23;20537;-81
2022/04/13 03:16:09;;;;;;;25.17;23.97;;;12.50;47.10;;;;;;6170942;23;20278;-81
2022/04/13 03:18:34;;;;;;;24.37;23.23;;;12.50;47.60;;;;;;6172803;23;20246;-81
2022/04/13 03:21:00;;;;;;;24.90;23.80;;;12.40;47.90;;;;;;6171361;23;20192;-79
2022/04/13 03:23:26;;;;;;;25.73;24.43;;;12.40;48.20;;;;;;6173400;23;20592;-81
2022/04/13 03:25:52;;;;;;;24.73;23.63;;;12.40;48.30;;;;;;6172656;23;20305;-80
2022/04/13 03:28:19;;;;;;;26.20;25.10;;;12.30;48.50;;;;;;6172324;23;20198;-81
2022/04/13 03:30:45;;;;;;;25.57;24.23;;;12.30;48.70;;;;;;6176636;23;20411;-80
2022/04/13 03:33:11;;;;;;;27.63;26.53;;;12.30;48.80;;;;;;6173544;23;20447;-82
2022/04/13 03:35:36;;;;;;;24.73;23.60;;;12.30;48.70;;;;;;6176666;23;20422;-81
2022/04/13 03:38:02;;;;;;;26.83;25.63;;;12.30;48.60;;;;;;6171648;23;20222;-81
2022/04/13 03:40:28;;;;;;;25.57;24.43;;;12.30;48.50;;;;;;6174492;23;20523;-81
2022/04/13 03:42:53;;;;;;;24.73;23.67;;;12.30;48.60;;;;;;6198129;23;20196;-81
2022/04/13 03:45:19;;;;;;;27.50;26.00;;;12.20;48.80;;;;;;6174691;23;20199;-82
2022/04/13 03:47:45;;;;;;;26.10;24.90;;;12.20;49.70;;;;;;6173549;23;20192;-81
2022/04/13 03:50:11;;;;;;;25.97;24.77;;;12.10;50.40;;;;;;6173021;23;20219;-81
2022/04/13 03:52:37;;;;;;;26.30;25.20;;;12.00;50.80;;;;;;6173697;23;20498;-81
2022/04/13 03:55:04;;;;;;;25.40;24.30;;;12.00;50.80;;;;;;6173790;23;20236;-81
2022/04/13 03:57:30;;;;;;;26.50;25.20;;;11.90;51.40;;;;;;6173767;23;20421;-81
2022/04/13 03:59:56;;;;;;;28.17;26.93;;;12.00;51.80;;;;;;6172301;23;21003;-82
2022/04/13 04:02:22;;;;;;;26.60;25.40;;;12.00;51.40;;;;;;6176673;23;20502;-81
2022/04/13 04:04:48;;;;;;;26.33;25.13;;;12.10;50.90;;;;;;6174469;23;20904;-81
2022/04/13 04:07:14;;;;;;;24.83;23.83;;;12.10;50.60;;;;;;6176461;23;20484;-80
2022/04/13 04:09:39;;;;;;;25.70;24.53;;;12.00;50.60;;;;;;6171543;23;20880;-81
2022/04/13 04:12:05;;;;;;;25.60;24.40;;;12.00;50.70;;;;;;6173884;23;20211;-82
2022/04/13 04:14:31;;;;;;;26.40;25.10;;;12.10;50.80;;;;;;6176098;23;20203;-83
2022/04/13 04:16:57;;;;;;;27.63;26.37;;;12.00;51.00;;;;;;6172706;23;20860;-84
2022/04/13 04:19:22;;;;;;;26.17;24.87;;;12.00;51.10;;;;;;6173789;23;20191;-83
2022/04/13 04:21:48;;;;;;;25.10;24.00;;;11.90;52.30;;;;;;6170806;23;20637;-83
2022/04/13 04:24:14;;;;;;;25.97;24.77;;;11.80;52.70;;;;;;6200620;23;20265;-81
2022/04/13 04:26:40;;;;;;;26.53;25.27;;;11.80;53.00;;;;;;6170565;23;20195;-76
2022/04/13 04:29:05;;;;;;;28.27;26.77;;;11.80;53.00;;;;;;6171380;23;20191;-77
2022/04/13 04:31:49;;;;;;;25.70;24.20;;;11.80;53.00;;;;;;6168570;23;20407;-77
2022/04/13 04:34:16;;;;;;;25.35;24.20;;;11.80;52.20;;;;;;6169444;23;20390;-77
2022/04/13 04:36:41;;;;;;;26.50;25.00;;;11.80;53.00;;;;;;6169899;23;20601;-79
2022/04/13 04:39:07;;;;;;;26.87;25.57;;;11.80;52.90;;;;;;6169697;23;20446;-77
2022/04/13 04:41:33;;;;;;;25.97;24.77;;;11.80;52.40;;;;;;6168302;23;20203;-76
2022/04/13 04:43:59;;;;;;;25.57;24.47;;;11.80;52.90;;;;;;6168239;23;20257;-77
2022/04/13 04:46:25;;;;;;;25.20;24.10;;;11.80;52.70;;;;;;6161563;23;20426;-75
2022/04/13 04:48:51;;;;;;;24.93;23.43;;;11.70;52.80;;;;;;6170565;23;20762;-77
2022/04/13 04:51:17;;;;;;;24.20;23.10;;;11.70;52.90;;;;;;6195727;23;20429;-76
2022/04/13 04:53:42;;;;;;;24.63;23.53;;;11.70;52.90;;;;;;6200018;23;20204;-76
2022/04/13 04:56:08;;;;;;;23.37;22.27;;;11.70;52.90;;;;;;6170900;23;20287;-76
2022/04/13 04:58:34;;;;;;;24.87;23.60;;;11.80;53.00;;;;;;6172679;23;20200;-76
2022/04/13 05:00:59;;;;;;;25.23;23.93;;;11.70;52.90;;;;;;6171753;23;20299;-75
2022/04/13 05:03:25;;;;;;;24.87;23.77;;;11.70;52.90;;;;;;6172087;23;20275;-77
2022/04/13 05:05:51;;;;;;;26.23;24.80;;;11.70;52.90;;;;;;6171790;23;20562;-76
2022/04/13 05:08:17;;;;;;;24.57;23.50;;;11.80;53.00;;;;;;6171698;23;20200;-77
2022/04/13 05:10:47;;;;;;;25.63;24.33;;;11.70;52.90;;;;;;6171578;23;20472;-77
2022/04/13 05:13:13;;;;;;;23.73;22.73;;;11.70;52.80;;;;;;6171071;23;20705;-77
2022/04/13 05:15:41;;;;;;;23.93;22.83;;;11.80;53.00;;;;;;6169276;23;20752;-77
2022/04/13 05:18:07;;;;;;;24.30;23.07;;;11.80;53.00;;;;;;6168733;23;20501;-78
2022/04/13 05:20:32;;;;;;;23.97;22.77;;;11.80;53.00;;;;;;6171301;23;20489;-80
2022/04/13 05:22:58;;;;;;;24.20;23.00;;;11.80;53.00;;;;;;6171496;23;20276;-78
2022/04/13 05:25:25;;;;;;;27.83;26.33;;;11.80;53.00;;;;;;6172849;23;20199;-80
2022/04/13 05:27:51;;;;;;;24.10;22.97;;;11.90;53.10;;;;;;6172634;23;20234;-80
2022/04/13 05:30:17;;;;;;;24.97;23.87;;;11.90;53.10;;;;;;6172605;23;20406;-79
2022/04/13 05:32:58;;;;;;;26.40;25.00;;;11.90;53.10;;;;;;6170773;23;20208;-79
2022/04/13 05:35:27;;;;;;;24.73;23.53;;;11.90;53.10;;;;;;6170981;23;20195;-80
2022/04/13 05:37:54;;;;;;;24.90;23.73;;;12.00;53.20;;;;;;6169384;23;20811;-80
2022/04/13 05:40:21;;;;;;;24.77;23.57;;;12.00;53.20;;;;;;6170036;23;20916;-79
2022/04/13 05:42:47;;;;;;;28.97;27.17;;;12.00;52.00;;;;;;6170120;23;20446;-79
2022/04/13 05:45:14;;;;;;;27.13;25.17;;;11.90;51.10;;;;;;6171646;23;20419;-79
2022/04/13 05:47:42;;;;;;;25.37;23.97;;;12.00;51.50;;;;;;6170837;23;20202;-80
2022/04/13 05:50:08;;;;;;;25.97;24.30;;;12.00;51.50;;;;;;6171814;23;20437;-80
2022/04/13 05:52:34;;;;;;;25.60;24.40;;;12.20;51.40;;;;;;6171354;23;20419;-80
2022/04/13 05:55:00;;;;;;;26.00;24.70;;;12.20;50.80;;;;;;6169757;23;20431;-80
2022/04/13 05:57:25;;;;;;;26.37;25.10;;;12.30;50.30;;;;;;6171191;23;20629;-80
2022/04/13 05:59:51;;;;;;;26.80;25.60;;;12.40;49.80;;;;;;6168526;23;20645;-79
2022/04/13 06:02:17;;;;;;;27.80;26.47;;;12.30;49.70;;;;;;6170927;23;20206;-80
2022/04/13 06:04:43;;;;;;;25.53;24.43;;;12.30;50.80;;;;;;6170641;23;20212;-80
2022/04/13 06:07:08;;;;;;;25.93;24.57;;;12.30;51.20;;;;;;6169782;23;20283;-80
2022/04/13 06:09:34;;;;;;;26.93;25.73;;;12.30;49.70;;;;;;6169281;23;20195;-77
2022/04/13 06:12:01;;;;;;;26.33;24.90;;;12.40;50.10;;;;;;6169524;23;20199;-78
2022/04/13 06:14:26;;;;;;;29.93;27.97;;;12.40;49.20;;;;;;6196174;23;20291;-77
2022/04/13 06:16:52;;;;;;;29.03;27.43;;;12.50;49.40;;;;;;6168890;23;20454;-76
2022/04/13 06:19:17;;;;;;;29.07;27.30;;;12.50;48.90;;;;;;6169671;23;20259;-77
2022/04/13 06:21:43;;;;;;;29.40;27.43;;;12.50;48.80;;;;;;6192925;23;20278;-77
2022/04/13 06:24:09;;;;;;;28.50;26.80;;;12.50;47.60;;;;;;6170104;23;20191;-84
2022/04/13 06:26:35;;;;;;;30.80;28.90;;;12.50;48.00;;;;;;6171318;23;20199;-84
2022/04/13 06:29:00;;;;;;;27.27;26.07;;;12.70;48.30;;;;;;6170026;23;20732;-84
2022/04/13 06:31:26;;;;;;;30.70;28.97;;;12.70;48.10;;;;;;6172394;23;20278;-84
2022/04/13 06:33:52;;;;;;;29.07;27.67;;;12.70;47.90;;;;;;6175271;23;20207;-83
2022/04/13 06:36:18;;;;;;;27.70;26.30;;;12.70;48.00;;;;;;6177534;23;20230;-81
2022/04/13 06:38:44;;;;;;;27.87;26.50;;;12.70;48.30;;;;;;6163714;23;20209;-80
2022/04/13 06:41:11;;;;;;;28.57;26.80;;;12.80;48.80;;;;;;6174164;23;21346;-78
2022/04/13 06:43:37;;;;;;;27.40;26.10;;;12.90;47.50;;;;;;6202146;23;20449;-78
2022/04/13 06:46:03;;;;;;;28.90;27.30;;;13.00;47.40;;;;;;6173940;23;20417;-77
2022/04/13 06:48:29;;;;;;;28.10;26.20;;;13.00;47.80;;;;;;6174984;23;20735;-77
2022/04/13 06:50:54;;;;;;;29.17;27.70;;;13.00;47.40;;;;;;6175048;23;20191;-78
2022/04/13 06:53:20;;;;;;;29.10;27.07;;;13.10;47.30;;;;;;6175509;23;20195;-78
2022/04/13 06:55:47;;;;;;;29.33;27.70;;;13.20;47.80;;;;;;6173126;23;20219;-78
2022/04/13 06:58:15;;;;;;;29.30;27.33;;;13.30;48.40;;;;;;6175953;23;20616;-78
2022/04/13 07:00:43;;;;;;;29.03;27.40;;;13.30;47.80;;;;;;6172466;23;20414;-78
2022/04/13 07:03:10;;;;;;;29.30;27.80;;;13.30;48.00;;;;;;6173984;23;20423;-77
2022/04/13 07:05:35;;;;;;;29.97;27.40;;;13.40;47.00;;;;;;6178369;23;20423;-77
2022/04/13 07:08:02;;;;;;;30.57;28.57;;;13.50;47.80;;;;;;6176038;23;20427;-77
2022/04/13 07:10:30;;;;;;;28.90;27.50;;;13.50;48.50;;;;;;6175683;23;20192;-77
2022/04/13 07:12:56;;;;;;;28.77;27.13;;;13.60;46.90;;;;;;6177137;23;20473;-77
2022/04/13 07:15:23;;;;;;;29.00;27.47;;;13.60;47.10;;;;;;6174887;23;20427;-77
2022/04/13 07:17:48;;;;;;;29.50;27.90;;;13.70;46.50;;;;;;6173705;23;20497;-77
2022/04/13 07:20:14;;;;;;;29.67;27.50;;;13.80;47.10;;;;;;6174970;23;20459;-78
2022/04/13 07:22:52;;;;;;;28.57;27.00;;;13.80;46.70;;;;;;6175412;23;20296;-78
2022/04/13 07:25:19;;;;;;;28.67;27.07;;;13.90;45.30;;;;;;6175928;23;20441;-78
2022/04/13 07:27:46;;;;;;;29.40;27.70;;;13.90;46.30;;;;;;6175695;23;20561;-77
2022/04/13 07:30:13;;;;;;;29.20;27.70;;;14.00;44.60;;;;;;6178958;23;20703;-78
2022/04/13 07:32:40;;;;;;;28.47;26.97;;;14.00;45.10;;;;;;6176372;23;20423;-78
2022/04/13 07:35:06;;;;;;;28.80;27.30;;;14.10;46.70;;;;;;6204559;23;20435;-77
2022/04/13 07:37:32;;;;;;;29.83;27.60;;;14.20;44.60;;;;;;6179571;23;20501;-78
2022/04/13 07:39:59;;;;;;;29.20;27.47;;;14.30;45.20;;;;;;6179012;23;20418;-77
2022/04/13 07:42:26;;;;;;;27.50;25.93;;;14.30;44.70;;;;;;6183815;23;20387;-77
2022/04/13 07:44:53;;;;;;;27.77;26.03;;;14.40;44.80;;;;;;6179368;23;20422;-78
2022/04/13 07:47:20;;;;;;;30.80;28.93;;;14.40;44.00;;;;;;6178856;23;20426;-78
2022/04/13 07:49:46;;;;;;;30.03;27.73;;;14.50;45.60;;;;;;6177542;23;20461;-78
2022/04/13 07:52:14;;;;;;;27.93;26.23;;;14.50;44.70;;;;;;6177051;23;20419;-78
2022/04/13 07:54:40;;;;;;;28.23;26.63;;;14.60;41.40;;;;;;6173418;23;20777;-79
2022/04/13 07:57:06;;;;;;;27.83;25.93;;;14.70;42.90;;;;;;6198481;23;20427;-79
2022/04/13 07:59:32;;;;;;;27.80;26.00;;;14.70;43.30;;;;;;6172325;23;20422;-79
2022/04/13 08:01:57;;;;;;;28.27;26.40;;;14.80;43.50;;;;;;6172035;23;20422;-79
2022/04/13 08:04:23;;;;;;;27.63;26.07;;;14.90;42.10;;;;;;6170893;23;20884;-79
2022/04/13 08:06:49;;;;;;;27.30;25.90;;;15.00;42.00;;;;;;6172569;23;20724;-78
2022/04/13 08:09:14;;;;;;;29.60;27.80;;;15.00;42.10;;;;;;6173002;23;20238;-78
2022/04/13 08:11:40;;;;;;;27.67;25.80;;;15.10;40.90;;;;;;6172528;23;20261;-78
2022/04/13 08:14:06;;;;;;;27.90;26.10;;;15.20;41.50;;;;;;6171897;23;20596;-78
2022/04/13 08:16:32;;;;;;;27.63;25.93;;;15.20;41.20;;;;;;6172830;23;20657;-79
2022/04/13 08:18:58;;;;;;;26.70;25.30;;;15.30;42.00;;;;;;6171612;23;20880;-78
2022/04/13 08:21:23;;;;;;;27.27;25.47;;;15.50;40.10;;;;;;6171309;23;20195;-78
2022/04/13 08:23:49;;;;;;;25.83;24.53;;;15.50;40.10;;;;;;6171886;23;20192;-78
2022/04/13 08:26:15;;;;;;;27.03;25.30;;;15.50;37.10;;;;;;6173378;23;20191;-78
2022/04/13 08:28:41;;;;;;;27.33;25.63;;;15.60;38.90;;;;;;6171262;23;21199;-78
2022/04/13 08:31:09;;;;;;;26.23;24.93;;;15.60;39.50;;;;;;6168285;23;20202;-78
2022/04/13 08:33:35;;;;;;;27.37;25.87;;;15.70;39.00;;;;;;6170923;23;20195;-78
2022/04/13 08:36:02;;;;;;;28.27;26.30;;;15.70;39.30;;;;;;6171558;23;20461;-78
2022/04/13 08:38:27;;;;;;;27.40;25.60;;;15.70;38.90;;;;;;6171907;23;20411;-78
2022/04/13 08:41:02;;;;;;;27.17;25.53;;;15.90;38.60;;;;;;6171549;23;20615;-78
2022/04/13 08:43:39;;;;;;;25.30;24.00;;;16.00;38.80;;;;;;6170724;23;20685;-77
2022/04/13 08:46:10;;;;;;;26.50;25.13;;;16.10;39.30;;;;;;6171052;23;20803;-78
2022/04/13 08:48:40;;;;;;;26.80;25.23;;;16.20;37.70;;;;;;6169557;23;20796;-75
2022/04/13 08:51:09;;;;;;;27.57;25.93;;;16.30;38.30;;;;;;6182162;23;20445;-79
2022/04/13 08:53:38;;;;;;;27.83;26.33;;;16.40;38.50;;;;;;6169327;23;20438;-79
2022/04/13 08:56:08;;;;;;;28.77;27.10;;;16.50;38.60;;;;;;6171493;23;20488;-79
2022/04/13 08:58:43;;;;;;;26.73;25.50;;;16.60;35.50;;;;;;6170199;23;21000;-78
2022/04/13 09:01:27;;;;;;;29.73;27.90;;;16.70;36.50;;;;;;6194872;23;20410;-79
2022/04/13 09:03:57;;;;;;;27.40;25.80;;;16.90;34.90;;;;;;6168828;23;20449;-78
2022/04/13 09:06:25;;;;;;;27.60;26.20;;;17.00;33.60;;;;;;6170402;23;20451;-78
2022/04/13 09:08:57;;;;;;;26.23;24.93;;;17.20;32.90;;;;;;6171071;23;20476;-77
2022/04/13 09:11:22;;;;;;;25.93;24.53;;;17.20;32.80;;;;;;6195453;23;20407;-78
2022/04/13 09:13:49;;;;;;;25.03;23.70;;;17.30;32.60;;;;;;6170813;23;20435;-78
2022/04/13 09:16:16;;;;;;;26.87;24.93;;;17.30;32.00;;;;;;6171348;23;20775;-79
2022/04/13 09:18:43;;;;;;;26.57;25.17;;;17.40;31.50;;;;;;6171747;23;20419;-78
2022/04/13 09:21:11;;;;;;;26.60;25.00;;;17.50;31.90;;;;;;6170722;23;20443;-76
2022/04/13 09:23:36;;;;;;;26.80;25.10;;;17.50;32.40;;;;;;6172063;23;20411;-79
2022/04/13 09:26:03;;;;;;;24.40;23.30;;;17.60;30.50;;;;;;6175707;23;20917;-78
2022/04/13 09:28:29;;;;;;;25.40;24.30;;;17.70;29.60;;;;;;6199732;23;20575;-79
2022/04/13 09:30:55;;;;;;;27.33;25.77;;;17.70;30.30;;;;;;6172106;23;20414;-78
2022/04/13 09:33:22;;;;;;;25.60;24.00;;;17.80;29.00;;;;;;6172363;23;20192;-78
2022/04/13 09:35:47;;;;;;;25.47;23.60;;;18.00;29.60;;;;;;6172198;23;20502;-78
2022/04/13 09:38:13;;;;;;;25.17;23.63;;;18.00;30.00;;;;;;6171823;23;20450;-78
2022/04/13 09:40:41;;;;;;;25.63;23.93;;;18.00;28.90;;;;;;6171009;23;20521;-78
2022/04/13 09:43:08;;;;;;;25.80;24.50;;;18.00;28.70;;;;;;6197407;23;20203;-79
2022/04/13 09:45:41;;;;;;;26.40;24.40;;;18.00;28.60;;;;;;6169785;23;20442;-78
2022/04/13 09:48:12;;;;;;;25.10;23.77;;;18.10;28.70;;;;;;6173214;23;20481;-78
2022/04/13 09:50:38;;;;;;;25.73;24.40;;;18.10;28.70;;;;;;6171561;23;20422;-78
2022/04/13 09:53:06;;;;;;;25.10;23.90;;;18.20;27.80;;;;;;6170942;23;20748;-78
2022/04/13 09:55:48;;;;;;;24.87;23.40;;;18.20;28.50;;;;;;6171578;23;20423;-79
2022/04/13 09:58:16;;;;;;;24.57;23.37;;;18.20;26.20;;;;;;6170579;23;20454;-78
2022/04/13 10:00:45;;;;;;;23.80;22.17;;;18.20;27.50;;;;;;6170350;23;20728;-79
2022/04/13 10:03:21;;;;;;;23.13;21.60;;;18.30;26.10;;;;;;6169005;23;20425;-78
2022/04/13 10:05:55;;;;;;;22.93;21.83;;;18.30;26.60;;;;;;6169811;23;20429;-77
2022/04/13 10:08:23;;;;;;;23.80;22.50;;;18.40;25.70;;;;;;6171055;23;20442;-78
2022/04/13 10:10:51;;;;;;;23.30;21.87;;;18.50;25.40;;;;;;6169772;23;20419;-78
2022/04/13 10:13:36;;;;;;;24.27;22.87;;;18.60;25.80;;;;;;6170280;23;20498;-79
2022/04/13 10:16:04;;;;;;;23.20;21.77;;;18.70;25.60;;;;;;6169411;23;20855;-80
2022/04/13 10:18:53;;;;;;;23.90;22.70;;;18.70;24.30;;;;;;6160464;23;20853;-78
2022/04/13 10:21:47;;;;;;;24.53;22.90;;;18.80;23.70;;;;;;6196392;23;20747;-79
2022/04/13 10:24:21;;;;;;;21.43;20.53;;;18.90;24.40;;;;;;6168751;23;20411;-80
2022/04/13 10:27:02;;;;;;;21.70;20.80;;;18.90;24.10;;;;;;6197339;23;20479;-79
2022/04/13 10:29:28;;;;;;;22.50;21.50;;;19.00;24.20;;;;;;6196432;23;20407;-79
2022/04/13 10:32:05;;;;;;;22.30;21.40;;;19.10;23.70;;;;;;6171399;23;20415;-79
2022/04/13 10:34:37;;;;;;;23.70;22.30;;;19.10;23.50;;;;;;6172461;23;20465;-77
2022/04/13 10:37:03;;;;;;;23.23;22.00;;;19.10;23.60;;;;;;6168032;23;20422;-79
2022/04/13 10:39:30;;;;;;;22.30;21.23;;;19.30;23.20;;;;;;6171742;23;21103;-80
2022/04/13 10:41:56;;;;;;;22.57;21.67;;;19.40;23.30;;;;;;6171484;23;20804;-78
2022/04/13 10:44:45;;;;;;;23.20;22.10;;;19.30;23.20;;;;;;6199983;23;20415;-79
2022/04/13 10:47:16;;;;;;;24.30;23.20;;;19.40;23.00;;;;;;6169762;23;20668;-78
2022/04/13 10:49:50;;;;;;;23.27;22.23;;;19.50;23.00;;;;;;6169575;23;20414;-78
2022/04/13 10:52:35;;;;;;;23.80;22.60;;;19.60;23.70;;;;;;6194292;23;20910;-77
2022/04/13 10:55:10;;;;;;;23.20;22.20;;;19.70;23.70;;;;;;6167948;23;20465;-79
2022/04/13 10:57:49;;;;;;;23.50;22.40;;;19.70;23.50;;;;;;6170548;23;20568;-78
2022/04/13 11:00:19;;;;;;;23.93;22.63;;;19.70;24.00;;;;;;6170816;23;20797;-79
2022/04/13 11:02:54;;;;;;;22.90;21.67;;;19.90;23.20;;;;;;6198485;23;20425;-78
2022/04/13 11:05:22;;;;;;;22.47;21.30;;;19.90;23.30;;;;;;6171613;23;20791;-78
2022/04/13 11:08:04;;;;;;;22.90;21.90;;;20.10;23.00;;;;;;6171807;23;20897;-78
2022/04/13 11:10:32;;;;;;;22.60;21.60;;;20.10;22.00;;;;;;6171716;23;20422;-79
2022/04/13 11:12:59;;;;;;;23.73;22.30;;;20.20;22.60;;;;;;6171905;23;20888;-78
2022/04/13 11:15:43;;;;;;;20.00;19.20;;;20.20;22.30;;;;;;6174744;23;20813;-79
2022/04/13 11:18:20;;;;;;;23.77;22.70;;;20.40;22.00;;;;;;6174525;23;20826;-78
2022/04/13 11:21:08;;;;;;;22.87;21.90;;;20.50;22.00;;;;;;6200089;23;20478;-78
2022/04/13 11:23:43;;;;;;;23.00;21.73;;;20.40;21.20;;;;;;6172723;23;20410;-77
2022/04/13 11:26:08;;;;;;;23.43;22.30;;;20.50;21.20;;;;;;6201194;23;20421;-79
2022/04/13 11:28:35;;;;;;;22.50;21.50;;;20.50;21.80;;;;;;6200128;23;20374;-78
2022/04/13 11:31:03;;;;;;;22.70;21.60;;;20.60;21.40;;;;;;6176294;23;20521;-78
2022/04/13 11:33:48;;;;;;;24.10;22.87;;;20.50;21.50;;;;;;6200371;23;20411;-79
2022/04/13 11:36:14;;;;;;;24.57;22.87;;;20.50;21.90;;;;;;6197242;23;20729;-78
2022/04/13 11:38:47;;;;;;;21.90;20.70;;;20.60;21.60;;;;;;6173770;23;20469;-79
2022/04/13 11:41:13;;;;;;;22.60;21.60;;;20.70;21.60;;;;;;6176210;23;20219;-78
2022/04/13 11:43:40;;;;;;;22.37;21.30;;;20.60;21.50;;;;;;6174169;23;20434;-78
2022/04/13 11:46:06;;;;;;;22.40;21.40;;;20.70;21.50;;;;;;6172923;23;20192;-78
2022/04/13 11:48:35;;;;;;;22.30;21.10;;;20.60;21.00;;;;;;6174723;23;20411;-78
2022/04/13 11:51:26;;;;;;;22.43;21.10;;;20.60;21.10;;;;;;6174235;23;20548;-78
2022/04/13 11:53:54;;;;;;;21.73;20.63;;;20.60;21.00;;;;;;6175418;23;20435;-78
2022/04/13 11:56:34;;;;;;;23.50;21.80;;;20.70;21.40;;;;;;6172969;23;20442;-79
2022/04/13 11:59:00;;;;;;;21.57;20.67;;;20.70;21.60;;;;;;6170131;23;20421;-79
2022/04/13 12:01:26;;;;;;;22.60;21.40;;;20.70;21.60;;;;;;6172001;23;20415;-79
2022/04/13 12:03:54;;;;;;;22.17;21.10;;;20.70;21.50;;;;;;6172202;23;20767;-78
2022/04/13 12:06:22;;;;;;;22.03;20.93;;;20.80;21.10;;;;;;6172878;23;20415;-79
2022/04/13 12:08:55;;;;;;;22.03;21.03;;;20.80;21.60;;;;;;6172181;23;20422;-79
2022/04/13 12:11:49;;;;;;;22.60;21.60;;;20.90;21.20;;;;;;6172489;23;20419;-79
2022/04/13 12:14:26;;;;;;;22.07;21.07;;;20.90;21.20;;;;;;6174755;23;20772;-79
2022/04/13 12:16:55;;;;;;;22.77;21.57;;;20.90;21.60;;;;;;6173257;23;20508;-79
2022/04/13 12:19:21;;;;;;;23.67;22.43;;;20.90;21.40;;;;;;6173180;23;20419;-80
2022/04/13 12:21:46;;;;;;;22.90;21.80;;;20.90;21.10;;;;;;6173443;23;20581;-81
2022/04/13 12:24:12;;;;;;;21.90;20.90;;;21.00;21.10;;;;;;6173578;23;20291;-79
2022/04/13 12:26:40;;;;;;;23.53;22.40;;;21.00;21.10;;;;;;6174625;23;20199;-79
2022/04/13 12:29:19;;;;;;;23.13;22.03;;;21.00;21.40;;;;;;6175779;23;20970;-79
2022/04/13 12:31:47;;;;;;;22.83;21.60;;;21.00;21.30;;;;;;6175478;23;20473;-79